Willow Island, West Virginia
Current Conditions -  °F | °C
As of 6:53 PM on Sunday 21 Dec 2014 (Local Time) from KPKB Reporting Station
Clear Clear  
Wind Chill: 33°   Ceiling: Unl
Heat Index: 33°   Visibility: 10mi
Dew Point: 24°   Wind: 3mph
Humidity: 70%   Direction: 20°NNE
Pressure: 30.22"   Gusts: NA
Location:  39.3518°N, 81.2939°W
Report Text: KPKB 212353Z 02003KT 10SM CLR 01/M04 A3022 RMK AO2 SLP242 T00061044 10056 20000 56004
Loading
Personal Weather Stations






























Interactive Weather Map New forecast layout! Learn more

10-Day Weather Forecast

Advertisements
Track Severe Weather on mobile